Temp: 6.0°C   Baro: 1003.9mb
  Wind: 11.0mph   Dir: N (5°)
  Rain: 4.2mm (0.0mm/hr)
  Solar: 0W/m2  Hum: 89%

Historic data

Bath Spa Weather Station Historical Data
Daily Summary for September 26, 2019 Units:  English    Metric   Both
Daily Weekly Monthly Yearly Custom
  High: Low: Average:
Temperature: 50.2 °F 40.5 °F 46.7 °F
Dew Point: 48.2 °F 37.8 °F 44.5 °F
Humidity: 96% 86% 92%
Wind Speed: 15mph 0.4mph 5.6mph
Wind Gust: 30mph - -
Wind- - SW
Pressure: 30.15 in 29.73 in -
Precipitation: 0.06 in    
Historical Graphs
 
 
Tabular Data for September 26, 2019
Time Temperature Dew Point Pressure Wind Wind Speed Wind Gust Humidity Rainfall Rate (Hourly) solar
00:04 40.6 °F 37.9 °F 30.15 in ESE 2.4 mph 8 mph 90% 0.00 in 0 W/m2
00:09 40.6 °F 37.9 °F 30.15 in ESE 4.2 mph 8 mph 90% 0.00 in 0 W/m2
00:14 40.6 °F 37.9 °F 30.14 in East 2.8 mph 8 mph 90% 0.00 in 0 W/m2
00:19 40.6 °F 37.8 °F 30.14 in ESE 3.5 mph 9 mph 90% 0.00 in 0 W/m2
00:24 40.5 °F 37.8 °F 30.14 in ESE 6.7 mph 10 mph 90% 0.00 in 0 W/m2
00:29 40.6 °F 37.9 °F 30.14 in ESE 4.4 mph 10 mph 90% 0.00 in 0 W/m2
00:34 40.6 °F 37.9 °F 30.13 in ESE 4.6 mph 10 mph 90% 0.00 in 0 W/m2
00:39 40.6 °F 38.1 °F 30.13 in ESE 7.4 mph 11 mph 90.6% 0.00 in 0 W/m2
00:44 40.6 °F 38.3 °F 30.12 in East 5.4 mph 11 mph 91% 0.00 in 0 W/m2
00:49 40.7 °F 38.4 °F 30.12 in ESE 3.1 mph 10 mph 91% 0.00 in 0 W/m2
00:54 40.8 °F 38.5 °F 30.11 in East 6.2 mph 11 mph 91% 0.00 in 0 W/m2
00:59 40.8 °F 38.5 °F 30.11 in ESE 4.6 mph 8 mph 91% 0.00 in 0 W/m2
01:04 40.8 °F 38.5 °F 30.11 in East 6.2 mph 12 mph 91% 0.00 in 0 W/m2
01:09 40.8 °F 38.5 °F 30.10 in ESE 4.8 mph 13 mph 91% 0.00 in 0 W/m2
01:14 40.8 °F 38.5 °F 30.09 in East 5.6 mph 13 mph 91% 0.00 in 0 W/m2
01:19 40.8 °F 38.5 °F 30.09 in ESE 6 mph 12 mph 91% 0.00 in 0 W/m2
01:24 40.8 °F 38.5 °F 30.09 in ESE 4.2 mph 12 mph 91% 0.00 in 0 W/m2
01:29 40.8 °F 38.5 °F 30.09 in SE 4.5 mph 11 mph 91% 0.00 in 0 W/m2
01:34 41 °F 38.7 °F 30.09 in East 4.5 mph 10 mph 91% 0.00 in 0 W/m2
01:39 41.2 °F 38.8 °F 30.09 in ESE 5.5 mph 11 mph 91% 0.00 in 0 W/m2
01:44 41.2 °F 38.8 °F 30.08 in SE 5.4 mph 11 mph 91% 0.00 in 0 W/m2
01:49 41.2 °F 38.8 °F 30.08 in East 3.9 mph 11 mph 91% 0.00 in 0 W/m2
01:54 41.3 °F 38.9 °F 30.08 in East 4.3 mph 11 mph 91% 0.00 in 0 W/m2
01:59 41.4 °F 39 °F 30.08 in East 4.5 mph 9 mph 91% 0.00 in 0 W/m2
02:04 41.4 °F 39 °F 30.08 in East 2.7 mph 7 mph 91% 0.00 in 0 W/m2
02:09 41.5 °F 39.2 °F 30.08 in ESE 3.8 mph 9 mph 91% 0.00 in 0 W/m2
02:14 41.5 °F 39.2 °F 30.07 in SE 3.2 mph 9 mph 91% 0.00 in 0 W/m2
02:19 41.5 °F 39.2 °F 30.07 in ESE 3.5 mph 7 mph 91% 0.00 in 0 W/m2
02:24 41.7 °F 39.2 °F 30.07 in East 5.1 mph 8 mph 91% 0.00 in 0 W/m2
02:29 41.9 °F 39.4 °F 30.06 in ESE 4.4 mph 10 mph 91% 0.00 in 0 W/m2
02:34 42.2 °F 39.7 °F 30.06 in ESE 3.1 mph 10 mph 91% 0.00 in 0 W/m2
02:38 42.3 °F 39.7 °F 30.06 in SE 4.3 mph 10 mph 91% 0.00 in 0 W/m2
02:44 42.3 °F 39.7 °F 30.06 in ESE 3.7 mph 7 mph 91% 0.00 in 0 W/m2
02:49 42.3 °F 39.7 °F 30.06 in ESE 3.2 mph 8 mph 91% 0.00 in 0 W/m2
02:54 42.4 °F 39.9 °F 30.06 in ESE 4 mph 8 mph 91% 0.00 in 0 W/m2
02:59 42.4 °F 39.9 °F 30.05 in ESE 5 mph 8 mph 91% 0.00 in 0 W/m2
03:04 42.6 °F 40.1 °F 30.04 in ESE 6 mph 11 mph 91% 0.00 in 0 W/m2
03:09 42.6 °F 40 °F 30.04 in ESE 4.4 mph 10 mph 90.4% 0.00 in 0 W/m2
03:14 42.9 °F 40.2 °F 30.04 in ESE 4.9 mph 12 mph 90% 0.00 in 0 W/m2
03:19 43 °F 40.3 °F 30.03 in SE 5.3 mph 9 mph 90% 0.00 in 0 W/m2
03:24 43.2 °F 40.5 °F 30.03 in ESE 6.7 mph 13 mph 90% 0.00 in 0 W/m2
03:28 43.2 °F 40.5 °F 30.03 in SE 4 mph 6 mph 90% 0.00 in 0 W/m2
03:34 43.3 °F 40.6 °F 30.03 in ESE 6 mph 12 mph 90% 0.00 in 0 W/m2
03:39 43.5 °F 40.8 °F 30.03 in ESE 5.7 mph 11 mph 90% 0.00 in 0 W/m2
03:44 43.8 °F 41 °F 30.02 in ESE 8 mph 11 mph 89.6% 0.00 in 0 W/m2
03:49 44.1 °F 41 °F 30.02 in SE 4.9 mph 13 mph 89% 0.00 in 0 W/m2
03:54 44.2 °F 41.1 °F 30.01 in SE 7.7 mph 12 mph 89% 0.00 in 0 W/m2
03:59 44.2 °F 41.1 °F 30.02 in ESE 7.4 mph 17 mph 88.4% 0.00 in 0 W/m2
04:04 44.4 °F 41.2 °F 30.02 in SE 4.9 mph 12 mph 88% 0.00 in 0 W/m2
04:09 44.4 °F 41 °F 30.02 in SSE 4.1 mph 13 mph 87.4% 0.00 in 0 W/m2
04:13 44.4 °F 40.8 °F 30.01 in SE 5.9 mph 12 mph 87% 0.00 in 0 W/m2
04:19 44.4 °F 40.8 °F 30.01 in SE 3.7 mph 10 mph 87% 0.00 in 0 W/m2
04:24 44.4 °F 40.8 °F 30.01 in SE 5 mph 10 mph 87% 0.00 in 0 W/m2
04:29 44.5 °F 40.9 °F 30.00 in SE 5.4 mph 15 mph 87% 0.00 in 0 W/m2
04:34 44.7 °F 41.1 °F 29.99 in SE 8 mph 17 mph 87% 0.00 in 0 W/m2
04:39 44.8 °F 40.8 °F 29.98 in SE 6.8 mph 16 mph 86% 0.00 in 0 W/m2
04:44 44.8 °F 40.8 °F 29.98 in ESE 5.3 mph 18 mph 86% 0.00 in 0 W/m2
04:49 44.8 °F 40.8 °F 29.97 in East 8.4 mph 16 mph 86% 0.00 in 0 W/m2
04:53 44.8 °F 40.8 °F 29.96 in SE 8.2 mph 15 mph 86% 0.00 in 0 W/m2
04:59 44.7 °F 40.7 °F 29.96 in ESE 12.3 mph 19 mph 86% 0.00 in 0 W/m2
05:04 44.7 °F 40.7 °F 29.97 in SE 7.2 mph 19 mph 86% 0.00 in 0 W/m2
05:09 44.6 °F 40.6 °F 29.97 in SE 6.2 mph 14 mph 86% 0.00 in 0 W/m2
05:14 44.7 °F 40.7 °F 29.97 in SE 10 mph 16 mph 86% 0.00 in 0 W/m2
05:19 44.8 °F 40.8 °F 29.97 in SE 7 mph 16 mph 86% 0.00 in 0 W/m2
05:24 44.8 °F 40.8 °F 29.97 in ESE 11 mph 22 mph 86% 0.00 in 0 W/m2
05:29 44.8 °F 40.8 °F 29.96 in SSE 8.2 mph 22 mph 86% 0.00 in 0 W/m2
05:34 44.9 °F 40.9 °F 29.96 in SE 6.8 mph 15 mph 86% 0.00 in 0 W/m2
05:39 45 °F 41 °F 29.95 in SE 8.8 mph 17 mph 86% 0.00 in 0 W/m2
05:44 45 °F 41 °F 29.95 in SE 7.7 mph 14 mph 86% 0.00 in 0 W/m2
05:49 45 °F 41 °F 29.94 in SE 7.6 mph 18 mph 86% 0.00 in 0 W/m2
05:54 45 °F 41 °F 29.94 in SSE 10.8 mph 21 mph 86% 0.00 in 0 W/m2
05:59 45.1 °F 41.1 °F 29.95 in SE 7 mph 21 mph 86% 0.00 in 0 W/m2
06:04 45.1 °F 41.1 °F 29.94 in SE 8.8 mph 15 mph 86% 0.00 in 0 W/m2
06:09 45.1 °F 41.5 °F 29.94 in SE 11.6 mph 18 mph 87% 0.00 in 0 W/m2
06:14 45.1 °F 41.5 °F 29.93 in SE 5.9 mph 18 mph 87% 0.00 in 0 W/m2
06:19 45.1 °F 41.5 °F 29.93 in SE 6.5 mph 17 mph 87% 0.00 in 0 W/m2
06:24 45.1 °F 41.5 °F 29.92 in SE 6.6 mph 17 mph 87.2% 0.00 in 0 W/m2
06:29 45.1 °F 41.7 °F 29.92 in SSE 7 mph 15 mph 88% 0.00 in 0 W/m2
06:34 45.1 °F 41.7 °F 29.92 in SE 9.2 mph 18 mph 88% 0.00 in 0 W/m2
06:39 45.1 °F 41.7 °F 29.92 in SSE 7.2 mph 17 mph 88% 0.00 in 0 W/m2
06:44 45.3 °F 41.9 °F 29.91 in SE 14 mph 18 mph 88% 0.00 in 0 W/m2
06:49 45.3 °F 41.9 °F 29.91 in SE 9.2 mph 18 mph 88% 0.00 in 0 W/m2
06:54 45.3 °F 41.9 °F 29.91 in SSE 9 mph 18 mph 88% 0.00 in 0 W/m2
06:59 45.3 °F 41.9 °F 29.91 in SSE 11.4 mph 18 mph 88% 0.00 in 0 W/m2
07:04 45.3 °F 42.2 °F 29.90 in SSE 8.6 mph 17 mph 88.8% 0.00 in 0 W/m2
07:09 45.3 °F 42.3 °F 29.90 in SSE 7.2 mph 17 mph 89% 0.00 in 0 W/m2
07:14 45.3 °F 42.3 °F 29.89 in SSE 7.2 mph 15 mph 89% 0.00 in 0 W/m2
07:19 45.1 °F 42.1 °F 29.89 in SSE 9 mph 17 mph 89% 0.00 in 0 W/m2
07:24 45.1 °F 42.4 °F 29.89 in SSE 8.8 mph 18 mph 90% 0.00 in 0 W/m2
07:29 45.1 °F 42.4 °F 29.88 in SE 9 mph 16 mph 90% 0.00 in 0 W/m2
07:34 45.1 °F 42.4 °F 29.88 in SSE 12.5 mph 23 mph 90% 0.00 in 0 W/m2
07:39 45.1 °F 42.4 °F 29.87 in SSE 6.8 mph 16 mph 90% 0.00 in 0 W/m2
07:44 45.1 °F 42.5 °F 29.87 in SE 11.8 mph 19 mph 90.6% 0.00 in 0 W/m2
07:49 45.1 °F 42.6 °F 29.86 in SE 11.8 mph 21 mph 91% 0.00 in 0 W/m2
07:54 45.1 °F 42.6 °F 29.85 in SE 9.4 mph 16 mph 91% 0.00 in 0 W/m2
07:59 45.1 °F 42.6 °F 29.84 in SSE 12.2 mph 22 mph 91% 0.00 in 0 W/m2
08:04 45.1 °F 42.6 °F 29.83 in SE 10 mph 22 mph 91% 0.00 in 0 W/m2
08:09 45.2 °F 42.9 °F 29.83 in SSE 8.2 mph 18 mph 91.6% 0.00 in 0 W/m2
08:14 45.2 °F 43.1 °F 29.83 in SSE 12 mph 22 mph 92% 0.00 in 0 W/m2
08:19 45.3 °F 43.2 °F 29.83 in SE 13.6 mph 22 mph 92% 0.00 in 0 W/m2
08:24 45.5 °F 43.3 °F 29.82 in SE 9.4 mph 23 mph 92% 0.00 in 5 W/m2
08:29 45.5 °F 43.3 °F 29.82 in SSE 9.2 mph 23 mph 92% 0.00 in 5 W/m2
08:34 45.7 °F 43.5 °F 29.82 in ESE 13.1 mph 21 mph 92% 0.00 in 7 W/m2
08:39 45.9 °F 43.7 °F 29.81 in ESE 14.1 mph 23 mph 92% 0.00 in 7 W/m2
08:44 45.9 °F 43.7 °F 29.81 in SE 11 mph 23 mph 92.2% 0.00 in 9 W/m2
08:49 46 °F 44 °F 29.80 in SE 12.2 mph 23 mph 92.8% 0.00 in 9 W/m2
08:54 46.1 °F 44.1 °F 29.80 in ESE 11.8 mph 23 mph 92.6% 0.00 in 9 W/m2
08:59 46.2 °F 44.2 °F 29.79 in ESE 7.8 mph 24 mph 93% 0.00 in 9 W/m2
09:04 46.2 °F 44.2 °F 29.79 in SE 11.2 mph 24 mph 93% 0.00 in 7 W/m2
09:09 46.4 °F 44.4 °F 29.78 in SE 8.8 mph 18 mph 93% 0.00 in 11 W/m2
09:14 46.6 °F 44.6 °F 29.78 in ESE 13.5 mph 24 mph 93% 0.00 in 16 W/m2
09:19 46.8 °F 44.8 °F 29.77 in SE 8 mph 21 mph 93% 0.00 in 18 W/m2
09:24 46.9 °F 45 °F 29.76 in ESE 9.8 mph 22 mph 93% 0.00 in 26 W/m2
09:29 46.9 °F 45 °F 29.76 in SE 9.4 mph 20 mph 93% 0.00 in 28 W/m2
09:34 47.1 °F 45.1 °F 29.75 in SE 9 mph 21 mph 93% 0.00 in 35 W/m2
09:39 47.1 °F 45.1 °F 29.75 in SE 6.4 mph 16 mph 93% 0.00 in 33 W/m2
09:44 47.1 °F 45.1 °F 29.75 in ESE 12.2 mph 17 mph 93% 0.00 in 28 W/m2
09:49 47.1 °F 45.1 °F 29.74 in ESE 7.6 mph 17 mph 93% 0.00 in 19 W/m2
09:54 47.3 °F 45.3 °F 29.74 in ESE 9.5 mph 14 mph 93% 0.00 in 21 W/m2
09:59 47.5 °F 45.5 °F 29.74 in ESE 8.6 mph 15 mph 93% 0.01 in 16 W/m2
10:04 47.6 °F 45.7 °F 29.73 in SE 7 mph 17 mph 93.2% 0.01 in 16 W/m2
10:09 47.9 °F 46.3 °F 29.74 in SSE 6.2 mph 13 mph 93.8% 0.01 in 18 W/m2
10:14 48.4 °F 46.7 °F 29.74 in SSW 7.4 mph 17 mph 94% 0.01 in 19 W/m2
10:19 48.6 °F 46.9 °F 29.74 in SSW 5.4 mph 14 mph 94% 0.01 in 23 W/m2
10:24 48.6 °F 47 °F 29.75 in WSW 4.9 mph 11 mph 94% 0.01 in 23 W/m2
10:29 48.7 °F 47.1 °F 29.75 in SW 7 mph 14 mph 94% 0.01 in 23 W/m2
10:34 48.7 °F 47.1 °F 29.75 in WSW 9.2 mph 16 mph 94% 0.01 in 35 W/m2
10:39 48.9 °F 47.1 °F 29.75 in SW 6.6 mph 14 mph 93.6% 0.01 in 32 W/m2
10:44 48.9 °F 46.9 °F 29.75 in SSW 4.4 mph 9 mph 93% 0.01 in 37 W/m2
10:49 48.9 °F 46.9 °F 29.75 in SW 7.2 mph 11 mph 93% 0.01 in 37 W/m2
10:54 49.2 °F 47.2 °F 29.75 in WSW 8.4 mph 15 mph 93% 0.01 in 47 W/m2
10:59 49.5 °F 47.5 °F 29.75 in West 8.8 mph 13 mph 93% 0.00 in 62 W/m2
11:04 49.6 °F 47.7 °F 29.76 in West 10 mph 17 mph 93% 0.00 in 63 W/m2
11:09 50 °F 48 °F 29.76 in WNW 11 mph 19 mph 93% 0.00 in 53 W/m2
11:14 50.2 °F 48.2 °F 29.77 in West 11.8 mph 18 mph 93% 0.00 in 60 W/m2
11:19 50.2 °F 48.2 °F 29.78 in WNW 12.4 mph 23 mph 93% 0.00 in 84 W/m2
11:24 50.2 °F 48.2 °F 29.78 in West 14.1 mph 23 mph 93% 0.00 in 91 W/m2
11:29 50.2 °F 48 °F 29.79 in WNW 15 mph 30 mph 92.2% 0.01 in 90 W/m2
11:34 50 °F 47.8 °F 29.80 in WNW 14.6 mph 19 mph 91.8% 0.01 in 67 W/m2
11:39 49.8 °F 47.3 °F 29.80 in West 15 mph 25 mph 91% 0.01 in 54 W/m2
11:44 49.6 °F 47 °F 29.81 in West 13.8 mph 24 mph 91% 0.01 in 58 W/m2
11:49 49.4 °F 46.8 °F 29.81 in WNW 9.8 mph 19 mph 91% 0.01 in 72 W/m2
11:54 49.2 °F 46.9 °F 29.82 in WNW 12.8 mph 20 mph 91.6% 0.01 in 70 W/m2
11:59 48.8 °F 46.7 °F 29.83 in WNW 11.2 mph 20 mph 92% 0.01 in 100 W/m2
12:04 48.7 °F 46.5 °F 29.83 in WNW 8.4 mph 17 mph 92% 0.01 in 83 W/m2
12:09 48.4 °F 46.2 °F 29.84 in WNW 13.2 mph 22 mph 92% 0.01 in 63 W/m2
12:14 48.1 °F 45.9 °F 29.84 in WNW 11.2 mph 22 mph 92% 0.01 in 49 W/m2
12:19 47.8 °F 45.8 °F 29.85 in West 11.2 mph 19 mph 92.8% 0.01 in 47 W/m2
12:24 47.8 °F 45.8 °F 29.85 in WNW 7.2 mph 13 mph 93% 0.01 in 46 W/m2
12:29 47.6 °F 45.6 °F 29.86 in WNW 6.9 mph 17 mph 93% 0.01 in 23 W/m2
12:34 47.3 °F 45.3 °F 29.86 in NW 11.2 mph 18 mph 93% 0.00 in 25 W/m2
12:39 47.1 °F 45.1 °F 29.87 in WNW 9.6 mph 18 mph 93% 0.00 in 28 W/m2
12:44 47.1 °F 45.3 °F 29.88 in WNW 8.2 mph 15 mph 93.4% 0.00 in 44 W/m2
12:49 47.3 °F 45.7 °F 29.88 in NW 8 mph 16 mph 94% 0.00 in 58 W/m2
12:54 47.5 °F 45.9 °F 29.88 in WNW 8 mph 16 mph 94% 0.00 in 74 W/m2
12:59 47.6 °F 45.9 °F 29.89 in WNW 8.3 mph 16 mph 94% 0.00 in 77 W/m2
13:04 47.6 °F 46 °F 29.89 in WNW 9.3 mph 15 mph 94% 0.00 in 97 W/m2
13:09 47.7 °F 46 °F 29.89 in WNW 9.4 mph 16 mph 94% 0.00 in 171 W/m2
13:14 47.8 °F 46.2 °F 29.90 in NW 13 mph 19 mph 94% 0.00 in 98 W/m2
13:19 47.9 °F 46.3 °F 29.90 in NW 6.1 mph 14 mph 94% 0.00 in 44 W/m2
13:24 48 °F 46.4 °F 29.91 in WNW 6.5 mph 12 mph 94% 0.00 in 42 W/m2
13:29 48 °F 46.4 °F 29.91 in NW 5.6 mph 13 mph 94% 0.00 in 35 W/m2
13:34 48.2 °F 46.6 °F 29.91 in WNW 6.9 mph 12 mph 94% 0.00 in 28 W/m2
13:39 48.4 °F 46.7 °F 29.91 in WNW 8 mph 14 mph 93.8% 0.00 in 58 W/m2
13:44 48.6 °F 46.9 °F 29.91 in WNW 6.8 mph 14 mph 94% 0.00 in 56 W/m2
13:49 48.7 °F 46.8 °F 29.91 in NW 6.4 mph 14 mph 93% 0.00 in 47 W/m2
13:54 48.9 °F 46.9 °F 29.91 in WNW 5.8 mph 14 mph 93% 0.00 in 49 W/m2
13:59 48.9 °F 46.9 °F 29.91 in WNW 10 mph 16 mph 93% 0.00 in 46 W/m2
14:04 49 °F 47 °F 29.92 in WNW 5.3 mph 13 mph 93% 0.00 in 40 W/m2
14:09 49.1 °F 47.1 °F 29.92 in West 8.3 mph 11 mph 93% 0.00 in 16 W/m2
14:14 49 °F 47 °F 29.92 in West 7 mph 11 mph 93% 0.00 in 7 W/m2
14:19 48.9 °F 46.9 °F 29.93 in WNW 6.2 mph 10 mph 93% 0.00 in 5 W/m2
14:24 48.7 °F 46.8 °F 29.93 in WNW 5.4 mph 11 mph 93% 0.00 in 11 W/m2
14:29 48.7 °F 46.8 °F 29.93 in West 3.7 mph 8 mph 93% 0.00 in 49 W/m2
14:34 48.7 °F 46.8 °F 29.93 in WNW 6 mph 13 mph 93% 0.00 in 70 W/m2
14:39 48.7 °F 46.8 °F 29.93 in WNW 5.6 mph 12 mph 93% 0.00 in 56 W/m2
14:44 48.9 °F 46.9 °F 29.93 in West 5 mph 9 mph 93% 0.00 in 63 W/m2
14:49 48.9 °F 46.9 °F 29.93 in West 4.8 mph 8 mph 93% 0.00 in 30 W/m2
14:54 48.9 °F 46.9 °F 29.93 in West 5.5 mph 9 mph 93% 0.00 in 23 W/m2
14:59 48.9 °F 46.9 °F 29.93 in West 4.8 mph 10 mph 93% 0.00 in 33 W/m2
15:04 49 °F 47 °F 29.93 in West 4.8 mph 9 mph 93% 0.00 in 37 W/m2
15:09 49.1 °F 47.1 °F 29.94 in West 4.6 mph 10 mph 93% 0.00 in 30 W/m2
15:14 49.1 °F 47.1 °F 29.94 in West 4.4 mph 8 mph 93% 0.00 in 23 W/m2
15:19 49 °F 47 °F 29.95 in WNW 3.2 mph 6 mph 93% 0.00 in 16 W/m2
15:24 49 °F 47 °F 29.95 in WNW 4.5 mph 7 mph 93% 0.00 in 5 W/m2
15:29 49 °F 47 °F 29.95 in West 4.4 mph 8 mph 93% 0.00 in 7 W/m2
15:34 49 °F 47 °F 29.94 in WSW 1.7 mph 8 mph 93% 0.00 in 7 W/m2
15:39 48.9 °F 46.9 °F 29.94 in West 2.4 mph 4 mph 93% 0.00 in 7 W/m2
15:44 48.9 °F 46.9 °F 29.94 in West 4.6 mph 7 mph 93% 0.00 in 5 W/m2
15:49 49.1 °F 47.1 °F 29.95 in WNW 4.9 mph 9 mph 93% 0.00 in 0 W/m2
15:54 49.1 °F 47.1 °F 29.94 in WNW 1.9 mph 5 mph 93% 0.00 in 0 W/m2
15:58 49.1 °F 47.1 °F 29.95 in WNW 1.7 mph 4 mph 93% 0.00 in 0 W/m2
16:04 49.1 °F 47.1 °F 29.95 in WNW 2.7 mph 5 mph 93% 0.00 in 0 W/m2
16:09 49.1 °F 47.1 °F 29.95 in WNW 1.2 mph 4 mph 93% 0.00 in 0 W/m2
16:14 49.1 °F 47.1 °F 29.95 in NW 1.8 mph 4 mph 93% 0.00 in 0 W/m2
16:19 49.1 °F 47.1 °F 29.95 in WNW 2.8 mph 7 mph 93% 0.00 in 0 W/m2
16:24 49.1 °F 47.1 °F 29.95 in WNW 2.8 mph 5 mph 93% 0.00 in 0 W/m2
16:29 49.2 °F 47.2 °F 29.95 in NW 2.1 mph 5 mph 93% 0.00 in 0 W/m2
16:34 49.3 °F 47.3 °F 29.95 in WNW 3.2 mph 9 mph 93% 0.00 in 0 W/m2
16:39 49.3 °F 47.3 °F 29.96 in WNW 4.5 mph 7 mph 93% 0.01 in 0 W/m2
16:44 49.4 °F 47.4 °F 29.95 in West 2.9 mph 8 mph 93% 0.01 in 0 W/m2
16:49 49.4 °F 47.4 °F 29.95 in West 4.4 mph 7 mph 93% 0.01 in 0 W/m2
16:54 49.5 °F 47.5 °F 29.96 in WSW 2.1 mph 6 mph 93% 0.01 in 0 W/m2
16:59 49.5 °F 47.5 °F 29.96 in WSW 3.7 mph 7 mph 93% 0.02 in 0 W/m2
17:04 49.4 °F 47.4 °F 29.96 in WSW 3.9 mph 7 mph 93% 0.02 in 0 W/m2
17:09 49.3 °F 47.3 °F 29.96 in WSW 5.2 mph 8 mph 93% 0.02 in 0 W/m2
17:14 49.3 °F 47.3 °F 29.96 in West 4.8 mph 9 mph 93% 0.02 in 0 W/m2
17:19 49.3 °F 47.3 °F 29.96 in WNW 2.5 mph 6 mph 93% 0.02 in 0 W/m2
17:24 49.3 °F 47.3 °F 29.96 in WNW 2 mph 6 mph 93% 0.02 in 0 W/m2
17:29 49.3 °F 47.3 °F 29.96 in WNW 2.5 mph 6 mph 93% 0.02 in 0 W/m2
17:34 49.3 °F 47.3 °F 29.96 in West 3.2 mph 8 mph 93% 0.02 in 0 W/m2
17:39 49.3 °F 47.3 °F 29.96 in WNW 2.4 mph 8 mph 93% 0.01 in 0 W/m2
17:44 49.2 °F 47.2 °F 29.97 in WNW 2.8 mph 6 mph 93% 0.01 in 0 W/m2
17:49 49.2 °F 47.2 °F 29.97 in West 2.7 mph 7 mph 93% 0.01 in 0 W/m2
17:54 49.1 °F 47.1 °F 29.98 in WNW 3.7 mph 6 mph 93% 0.01 in 0 W/m2
17:59 49 °F 47 °F 29.98 in WNW 4.1 mph 7 mph 93% 0.01 in 0 W/m2
18:04 48.9 °F 46.9 °F 29.97 in WNW 2.6 mph 5 mph 93% 0.02 in 0 W/m2
18:09 48.8 °F 46.8 °F 29.98 in WNW 1.7 mph 6 mph 93% 0.02 in 0 W/m2
18:14 48.7 °F 47.1 °F 29.98 in WNW 2.2 mph 4 mph 94% 0.02 in 0 W/m2
18:19 48.7 °F 47.1 °F 29.98 in NW 1.5 mph 4 mph 94% 0.02 in 0 W/m2
18:24 48.7 °F 47.1 °F 29.98 in NW 0.7 mph 2 mph 94% 0.02 in 0 W/m2
18:29 48.7 °F 47.1 °F 29.97 in NW 0.9 mph 2 mph 94% 0.02 in 0 W/m2
18:34 48.7 °F 47.1 °F 29.98 in NW 1.3 mph 3 mph 94% 0.02 in 0 W/m2
18:39 48.7 °F 47.1 °F 29.98 in NW 0.4 mph 2 mph 94% 0.02 in 0 W/m2
18:44 48.7 °F 47.1 °F 29.98 in WNW 1.7 mph 4 mph 94% 0.02 in 0 W/m2
18:49 48.7 °F 47.1 °F 29.98 in NW 2 mph 4 mph 94% 0.02 in 0 W/m2
18:54 48.6 °F 46.9 °F 29.98 in NW 1.8 mph 4 mph 94% 0.02 in 0 W/m2
18:59 48.7 °F 47.1 °F 29.99 in NNW 2.2 mph 4 mph 94% 0.02 in 0 W/m2
19:04 48.6 °F 47 °F 29.99 in NW 1.6 mph 4 mph 94% 0.01 in 0 W/m2
19:09 48.6 °F 47 °F 30.00 in NW 2.8 mph 4 mph 94% 0.00 in 0 W/m2
19:14 48.7 °F 47.1 °F 30.00 in WNW 1.7 mph 5 mph 94% 0.00 in 0 W/m2
19:19 48.7 °F 47.1 °F 30.00 in WNW 1.2 mph 3 mph 94% 0.00 in 0 W/m2
19:23 48.7 °F 47.1 °F 30.01 in WNW 1.2 mph 2 mph 94% 0.00 in 0 W/m2
19:29 48.7 °F 47.1 °F 30.01 in WNW 0.6 mph 2 mph 94% 0.00 in 0 W/m2
19:34 48.7 °F 47.1 °F 30.01 in WNW 1 mph 2 mph 94% 0.00 in 0 W/m2
19:39 48.7 °F 47.1 °F 30.01 in WNW 0.5 mph 2 mph 94% 0.00 in 0 W/m2
19:44 48.7 °F 47.1 °F 30.01 in WNW 1.3 mph 2 mph 94% 0.00 in 0 W/m2
19:48 48.7 °F 47.1 °F 30.01 in WNW 1.7 mph 3 mph 94% 0.00 in 0 W/m2
19:54 48.7 °F 47.1 °F 30.01 in WNW 1.2 mph 3 mph 94% 0.00 in 0 W/m2
19:59 48.7 °F 47.1 °F 30.01 in WNW 0.8 mph 2 mph 94% 0.00 in 0 W/m2
20:04 48.7 °F 47 °F 30.01 in WNW 0.8 mph 2 mph 94% 0.00 in 0 W/m2
20:09 48.6 °F 46.9 °F 30.02 in WNW 1.3 mph 2 mph 94% 0.00 in 0 W/m2
20:14 48.6 °F 46.9 °F 30.02 in WNW 0.7 mph 2 mph 94% 0.00 in 0 W/m2
20:19 48.6 °F 46.9 °F 30.02 in WNW 0.8 mph 2 mph 94% 0.00 in 0 W/m2
20:24 48.6 °F 47 °F 30.02 in WNW 1.5 mph 3 mph 94.6% 0.00 in 0 W/m2
20:29 48.6 °F 47.1 °F 30.02 in WNW 1.7 mph 3 mph 95% 0.01 in 0 W/m2
20:34 48.6 °F 47.1 °F 30.03 in WNW 1.6 mph 3 mph 95% 0.01 in 0 W/m2
20:39 48.6 °F 47.1 °F 30.03 in WNW 2.4 mph 3 mph 95% 0.01 in 0 W/m2
20:44 48.6 °F 47.1 °F 30.03 in WNW 1.3 mph 3 mph 95% 0.01 in 0 W/m2
20:49 48.6 °F 47.1 °F 30.03 in WNW 2 mph 3 mph 95% 0.01 in 0 W/m2
20:54 48.6 °F 47.1 °F 30.04 in West 4.2 mph 5 mph 95% 0.01 in 0 W/m2
20:59 48.6 °F 47.1 °F 30.04 in West 3.7 mph 5 mph 95% 0.01 in 0 W/m2
21:04 48.5 °F 47 °F 30.04 in West 2.6 mph 5 mph 95% 0.01 in 0 W/m2
21:09 48.4 °F 46.9 °F 30.04 in West 3.3 mph 5 mph 95% 0.01 in 0 W/m2
21:14 48.4 °F 46.9 °F 30.04 in WNW 2.5 mph 4 mph 95% 0.01 in 0 W/m2
21:19 48.4 °F 46.9 °F 30.05 in WNW 2.9 mph 5 mph 95% 0.01 in 0 W/m2
21:24 48.2 °F 46.8 °F 30.05 in WNW 2.9 mph 5 mph 95% 0.01 in 0 W/m2
21:29 48.2 °F 46.8 °F 30.05 in WNW 1.9 mph 4 mph 95% 0.00 in 0 W/m2
21:33 48.2 °F 46.8 °F 30.05 in WNW 1.7 mph 3 mph 95% 0.00 in 0 W/m2
21:39 48.4 °F 46.9 °F 30.06 in NW 1.3 mph 3 mph 95% 0.00 in 0 W/m2
21:44 48.5 °F 47 °F 30.07 in NW 2.4 mph 5 mph 95% 0.00 in 0 W/m2
21:49 48.6 °F 47.1 °F 30.07 in WNW 0.8 mph 3 mph 95% 0.00 in 0 W/m2
21:54 48.7 °F 47.3 °F 30.07 in WNW 1.7 mph 4 mph 95% 0.00 in 0 W/m2
21:59 48.7 °F 47.3 °F 30.07 in WNW 1.8 mph 4 mph 95% 0.00 in 0 W/m2
22:04 48.7 °F 47.3 °F 30.08 in WNW 2.2 mph 4 mph 95% 0.00 in 0 W/m2
22:09 48.7 °F 47.3 °F 30.08 in NW 0.4 mph 3 mph 95% 0.00 in 0 W/m2
22:14 48.9 °F 47.5 °F 30.08 in NW 0.8 mph 2 mph 95% 0.00 in 0 W/m2
22:19 48.7 °F 47.3 °F 30.08 in WNW 2.2 mph 4 mph 95% 0.00 in 0 W/m2
22:24 48.7 °F 47.3 °F 30.09 in WNW 2 mph 4 mph 95% 0.00 in 0 W/m2
22:29 48.8 °F 47.4 °F 30.09 in WNW 1.7 mph 4 mph 95% 0.00 in 0 W/m2
22:34 48.9 °F 47.5 °F 30.09 in WNW 0.8 mph 2 mph 95% 0.00 in 0 W/m2
22:39 48.9 °F 47.5 °F 30.09 in WNW 1 mph 3 mph 95% 0.00 in 0 W/m2
22:44 48.8 °F 47.4 °F 30.09 in WNW 2.5 mph 4 mph 95% 0.00 in 0 W/m2
22:49 48.7 °F 47.5 °F 30.10 in WNW 2.2 mph 4 mph 95.5% 0.00 in 0 W/m2
22:54 48.7 °F 47.6 °F 30.10 in WNW 1.6 mph 4 mph 95.8% 0.01 in 0 W/m2
22:59 48.7 °F 47.7 °F 30.11 in WNW 1.8 mph 3 mph 96% 0.01 in 0 W/m2
23:04 48.6 °F 47.6 °F 30.11 in WNW 0.9 mph 3 mph 96% 0.01 in 0 W/m2
23:09 48.7 °F 47.7 °F 30.11 in WNW 1.3 mph 3 mph 96% 0.01 in 0 W/m2
23:14 48.6 °F 47.6 °F 30.11 in WNW 1.3 mph 3 mph 96% 0.01 in 0 W/m2
23:19 48.6 °F 47.5 °F 30.12 in WNW 2.4 mph 3 mph 96% 0.01 in 0 W/m2
23:24 48.6 °F 47.5 °F 30.12 in WNW 2.2 mph 3 mph 96% 0.01 in 0 W/m2
23:29 48.6 °F 47.5 °F 30.12 in WNW 1.3 mph 3 mph 96% 0.01 in 0 W/m2
23:34 48.6 °F 47.5 °F 30.12 in WNW 1.1 mph 3 mph 96% 0.01 in 0 W/m2
23:39 48.6 °F 47.5 °F 30.12 in WNW 1.7 mph 4 mph 96% 0.01 in 0 W/m2
23:44 48.6 °F 47.5 °F 30.13 in WNW 1.7 mph 4 mph 96% 0.01 in 0 W/m2
23:49 48.4 °F 47.3 °F 30.13 in WNW 1.6 mph 4 mph 96% 0.01 in 0 W/m2
23:53 48.3 °F 47.2 °F 30.13 in NW 1.5 mph 3 mph 96% 0.00 in 0 W/m2
23:59 48.1 °F 47 °F 30.13 in NW 1.6 mph 3 mph 96% 0.00 in 0 W/m2
Bath Spa Weather
Compliments of Weather Underground - 2 mb